sensor_id;sensor_type;location;lat;lon;timestamp;temperature;humidity
21090;DHT22;10703;51.020;6.128;2023-07-29T00:00:45;17.70;99.90
21090;DHT22;10703;51.020;6.128;2023-07-29T00:03:11;17.80;99.90
21090;DHT22;10703;51.020;6.128;2023-07-29T00:05:38;17.90;99.90
21090;DHT22;10703;51.020;6.128;2023-07-29T00:08:05;17.90;99.90
21090;DHT22;10703;51.020;6.128;2023-07-29T00:10:34;18.00;99.90
21090;DHT22;10703;51.020;6.128;2023-07-29T00:13:02;18.10;99.90
21090;DHT22;10703;51.020;6.128;2023-07-29T00:15:28;18.00;99.90
21090;DHT22;10703;51.020;6.128;2023-07-29T00:17:55;17.90;99.90
21090;DHT22;10703;51.020;6.128;2023-07-29T00:20:22;18.00;99.90
21090;DHT22;10703;51.020;6.128;2023-07-29T00:22:48;18.00;99.90
21090;DHT22;10703;51.020;6.128;2023-07-29T00:25:21;18.00;99.90
21090;DHT22;10703;51.020;6.128;2023-07-29T00:27:48;18.20;99.90
21090;DHT22;10703;51.020;6.128;2023-07-29T00:30:15;18.20;99.90
21090;DHT22;10703;51.020;6.128;2023-07-29T00:32:42;18.40;99.90
21090;DHT22;10703;51.020;6.128;2023-07-29T00:35:09;18.50;99.90
21090;DHT22;10703;51.020;6.128;2023-07-29T00:37:35;18.60;99.90
21090;DHT22;10703;51.020;6.128;2023-07-29T00:40:12;18.60;99.90
21090;DHT22;10703;51.020;6.128;2023-07-29T00:42:40;18.70;99.90
21090;DHT22;10703;51.020;6.128;2023-07-29T00:45:09;18.70;99.90
21090;DHT22;10703;51.020;6.128;2023-07-29T00:47:37;18.80;99.90
21090;DHT22;10703;51.020;6.128;2023-07-29T00:50:04;18.90;99.90
21090;DHT22;10703;51.020;6.128;2023-07-29T00:52:31;18.90;99.90
21090;DHT22;10703;51.020;6.128;2023-07-29T00:54:57;18.90;99.90
21090;DHT22;10703;51.020;6.128;2023-07-29T00:57:25;19.10;99.90
21090;DHT22;10703;51.020;6.128;2023-07-29T00:59:52;19.00;99.90
21090;DHT22;10703;51.020;6.128;2023-07-29T01:02:19;19.00;99.90
21090;DHT22;10703;51.020;6.128;2023-07-29T01:04:45;19.00;99.90
21090;DHT22;10703;51.020;6.128;2023-07-29T01:07:19;19.00;99.90
21090;DHT22;10703;51.020;6.128;2023-07-29T01:10:10;19.00;99.90
21090;DHT22;10703;51.020;6.128;2023-07-29T01:12:47;19.00;99.90
21090;DHT22;10703;51.020;6.128;2023-07-29T01:15:36;19.00;99.90
21090;DHT22;10703;51.020;6.128;2023-07-29T01:18:11;19.00;99.90
21090;DHT22;10703;51.020;6.128;2023-07-29T01:20:43;19.00;99.90
21090;DHT22;10703;51.020;6.128;2023-07-29T01:23:12;19.00;99.90
21090;DHT22;10703;51.020;6.128;2023-07-29T01:25:38;19.00;99.90
21090;DHT22;10703;51.020;6.128;2023-07-29T01:28:05;19.00;99.90
21090;DHT22;10703;51.020;6.128;2023-07-29T01:30:38;19.00;99.90
21090;DHT22;10703;51.020;6.128;2023-07-29T01:33:20;19.00;99.90
21090;DHT22;10703;51.020;6.128;2023-07-29T01:35:54;19.00;99.90
21090;DHT22;10703;51.020;6.128;2023-07-29T01:38:33;19.00;99.90
21090;DHT22;10703;51.020;6.128;2023-07-29T01:41:02;19.00;99.90
21090;DHT22;10703;51.020;6.128;2023-07-29T01:43:30;19.00;99.90
21090;DHT22;10703;51.020;6.128;2023-07-29T01:45:57;19.00;99.90
21090;DHT22;10703;51.020;6.128;2023-07-29T01:48:24;18.80;99.90
21090;DHT22;10703;51.020;6.128;2023-07-29T01:50:51;18.90;99.90
21090;DHT22;10703;51.020;6.128;2023-07-29T01:53:17;18.90;99.90
21090;DHT22;10703;51.020;6.128;2023-07-29T01:55:44;18.90;99.90
21090;DHT22;10703;51.020;6.128;2023-07-29T01:58:11;19.00;99.90
21090;DHT22;10703;51.020;6.128;2023-07-29T02:00:39;19.00;99.90
21090;DHT22;10703;51.020;6.128;2023-07-29T02:03:06;18.90;99.90
21090;DHT22;10703;51.020;6.128;2023-07-29T02:05:33;19.00;99.90
21090;DHT22;10703;51.020;6.128;2023-07-29T02:07:59;18.90;99.90
21090;DHT22;10703;51.020;6.128;2023-07-29T02:10:26;18.90;99.90
21090;DHT22;10703;51.020;6.128;2023-07-29T02:12:52;18.90;99.90
21090;DHT22;10703;51.020;6.128;2023-07-29T02:15:19;18.90;99.90
21090;DHT22;10703;51.020;6.128;2023-07-29T02:17:46;19.00;99.90
21090;DHT22;10703;51.020;6.128;2023-07-29T02:20:12;18.90;99.90
21090;DHT22;10703;51.020;6.128;2023-07-29T02:22:39;18.90;99.90
21090;DHT22;10703;51.020;6.128;2023-07-29T02:25:06;18.90;99.90
21090;DHT22;10703;51.020;6.128;2023-07-29T02:27:33;18.90;99.90
21090;DHT22;10703;51.020;6.128;2023-07-29T02:29:59;18.90;99.90
21090;DHT22;10703;51.020;6.128;2023-07-29T02:32:27;19.00;99.90
21090;DHT22;10703;51.020;6.128;2023-07-29T02:34:54;18.90;99.90
21090;DHT22;10703;51.020;6.128;2023-07-29T02:37:20;18.80;99.90
21090;DHT22;10703;51.020;6.128;2023-07-29T02:39:47;18.80;99.90
21090;DHT22;10703;51.020;6.128;2023-07-29T02:42:13;18.80;99.90
21090;DHT22;10703;51.020;6.128;2023-07-29T02:44:40;18.70;99.90
21090;DHT22;10703;51.020;6.128;2023-07-29T02:47:07;18.70;99.90
21090;DHT22;10703;51.020;6.128;2023-07-29T02:49:33;18.70;99.90
21090;DHT22;10703;51.020;6.128;2023-07-29T02:52:00;18.60;99.90
21090;DHT22;10703;51.020;6.128;2023-07-29T02:54:27;18.50;99.90
21090;DHT22;10703;51.020;6.128;2023-07-29T02:56:54;18.50;99.90
21090;DHT22;10703;51.020;6.128;2023-07-29T02:59:20;18.40;99.90
21090;DHT22;10703;51.020;6.128;2023-07-29T03:01:47;18.60;99.90
21090;DHT22;10703;51.020;6.128;2023-07-29T03:04:13;18.30;99.90
21090;DHT22;10703;51.020;6.128;2023-07-29T03:06:40;18.30;99.90
21090;DHT22;10703;51.020;6.128;2023-07-29T03:09:07;18.30;99.90
21090;DHT22;10703;51.020;6.128;2023-07-29T03:11:33;18.20;99.90
21090;DHT22;10703;51.020;6.128;2023-07-29T03:14:00;18.20;99.90
21090;DHT22;10703;51.020;6.128;2023-07-29T03:16:27;18.20;99.90
21090;DHT22;10703;51.020;6.128;2023-07-29T03:18:53;18.10;99.90
21090;DHT22;10703;51.020;6.128;2023-07-29T03:21:20;18.10;99.90
21090;DHT22;10703;51.020;6.128;2023-07-29T03:23:47;18.10;99.90
21090;DHT22;10703;51.020;6.128;2023-07-29T03:26:13;18.10;99.90
21090;DHT22;10703;51.020;6.128;2023-07-29T03:28:41;18.10;99.90
21090;DHT22;10703;51.020;6.128;2023-07-29T03:31:09;18.00;99.90
21090;DHT22;10703;51.020;6.128;2023-07-29T03:33:36;18.00;99.90
21090;DHT22;10703;51.020;6.128;2023-07-29T03:36:03;18.00;99.90
21090;DHT22;10703;51.020;6.128;2023-07-29T03:38:29;18.00;99.90
21090;DHT22;10703;51.020;6.128;2023-07-29T03:40:56;18.00;99.90
21090;DHT22;10703;51.020;6.128;2023-07-29T03:43:23;18.00;99.90
21090;DHT22;10703;51.020;6.128;2023-07-29T03:45:50;18.00;99.90
21090;DHT22;10703;51.020;6.128;2023-07-29T03:48:16;18.00;99.90
21090;DHT22;10703;51.020;6.128;2023-07-29T03:50:43;18.00;99.90
21090;DHT22;10703;51.020;6.128;2023-07-29T03:53:10;18.00;99.90
21090;DHT22;10703;51.020;6.128;2023-07-29T03:55:36;18.00;99.90
21090;DHT22;10703;51.020;6.128;2023-07-29T03:58:03;18.00;99.90
21090;DHT22;10703;51.020;6.128;2023-07-29T04:00:31;17.90;99.90
21090;DHT22;10703;51.020;6.128;2023-07-29T04:02:57;18.00;99.90
21090;DHT22;10703;51.020;6.128;2023-07-29T04:05:24;17.90;99.90
21090;DHT22;10703;51.020;6.128;2023-07-29T04:07:51;17.90;99.90
21090;DHT22;10703;51.020;6.128;2023-07-29T04:10:18;17.90;99.90
21090;DHT22;10703;51.020;6.128;2023-07-29T04:12:45;17.80;99.90
21090;DHT22;10703;51.020;6.128;2023-07-29T04:15:12;17.80;99.90
21090;DHT22;10703;51.020;6.128;2023-07-29T04:17:39;17.70;99.90
21090;DHT22;10703;51.020;6.128;2023-07-29T04:20:06;17.70;99.90
21090;DHT22;10703;51.020;6.128;2023-07-29T04:22:34;17.70;99.90
21090;DHT22;10703;51.020;6.128;2023-07-29T04:25:00;17.60;99.90
21090;DHT22;10703;51.020;6.128;2023-07-29T04:27:27;17.50;99.90
21090;DHT22;10703;51.020;6.128;2023-07-29T04:29:54;17.60;99.90
21090;DHT22;10703;51.020;6.128;2023-07-29T04:32:20;17.50;99.90
21090;DHT22;10703;51.020;6.128;2023-07-29T04:34:47;17.50;99.90
21090;DHT22;10703;51.020;6.128;2023-07-29T04:37:13;17.40;99.90
21090;DHT22;10703;51.020;6.128;2023-07-29T04:39:40;17.40;99.90
21090;DHT22;10703;51.020;6.128;2023-07-29T04:42:07;17.40;99.90
21090;DHT22;10703;51.020;6.128;2023-07-29T04:44:33;17.40;99.90
21090;DHT22;10703;51.020;6.128;2023-07-29T04:47:00;17.40;99.90
21090;DHT22;10703;51.020;6.128;2023-07-29T04:49:26;17.40;99.90
21090;DHT22;10703;51.020;6.128;2023-07-29T04:51:53;17.60;99.90
21090;DHT22;10703;51.020;6.128;2023-07-29T04:54:20;17.40;99.90
21090;DHT22;10703;51.020;6.128;2023-07-29T04:56:47;17.50;99.90
21090;DHT22;10703;51.020;6.128;2023-07-29T04:59:14;17.30;99.90
21090;DHT22;10703;51.020;6.128;2023-07-29T05:01:40;17.30;99.90
21090;DHT22;10703;51.020;6.128;2023-07-29T05:04:09;17.30;99.90
21090;DHT22;10703;51.020;6.128;2023-07-29T05:06:36;17.30;99.90
21090;DHT22;10703;51.020;6.128;2023-07-29T05:09:13;17.30;99.90
21090;DHT22;10703;51.020;6.128;2023-07-29T05:11:40;17.30;99.90
21090;DHT22;10703;51.020;6.128;2023-07-29T05:14:07;17.30;99.90
21090;DHT22;10703;51.020;6.128;2023-07-29T05:16:35;17.40;99.90
21090;DHT22;10703;51.020;6.128;2023-07-29T05:19:02;17.20;99.90
21090;DHT22;10703;51.020;6.128;2023-07-29T05:21:29;17.30;99.90
21090;DHT22;10703;51.020;6.128;2023-07-29T05:23:56;17.30;99.90
21090;DHT22;10703;51.020;6.128;2023-07-29T05:26:23;17.30;99.90
21090;DHT22;10703;51.020;6.128;2023-07-29T05:28:50;17.30;99.90
21090;DHT22;10703;51.020;6.128;2023-07-29T05:31:16;17.30;99.90
21090;DHT22;10703;51.020;6.128;2023-07-29T05:33:43;17.40;99.90
21090;DHT22;10703;51.020;6.128;2023-07-29T05:36:10;17.30;99.90
21090;DHT22;10703;51.020;6.128;2023-07-29T05:38:36;17.30;99.90
21090;DHT22;10703;51.020;6.128;2023-07-29T05:41:03;17.50;99.90
21090;DHT22;10703;51.020;6.128;2023-07-29T05:43:30;17.50;99.90
21090;DHT22;10703;51.020;6.128;2023-07-29T05:45:56;17.40;99.90
21090;DHT22;10703;51.020;6.128;2023-07-29T05:48:23;17.40;99.90
21090;DHT22;10703;51.020;6.128;2023-07-29T05:50:49;17.40;99.90
21090;DHT22;10703;51.020;6.128;2023-07-29T05:53:17;17.50;99.90
21090;DHT22;10703;51.020;6.128;2023-07-29T05:55:44;17.50;99.90
21090;DHT22;10703;51.020;6.128;2023-07-29T05:58:10;17.50;99.90
21090;DHT22;10703;51.020;6.128;2023-07-29T06:00:37;17.60;99.90
21090;DHT22;10703;51.020;6.128;2023-07-29T06:03:04;17.60;99.90
21090;DHT22;10703;51.020;6.128;2023-07-29T06:05:30;17.80;99.90
21090;DHT22;10703;51.020;6.128;2023-07-29T06:07:57;17.90;99.90
21090;DHT22;10703;51.020;6.128;2023-07-29T06:10:23;18.00;99.90
21090;DHT22;10703;51.020;6.128;2023-07-29T06:12:50;18.10;99.90
21090;DHT22;10703;51.020;6.128;2023-07-29T06:15:17;18.10;99.90
21090;DHT22;10703;51.020;6.128;2023-07-29T06:17:44;18.40;99.90
21090;DHT22;10703;51.020;6.128;2023-07-29T06:20:11;18.30;99.90
21090;DHT22;10703;51.020;6.128;2023-07-29T06:22:38;18.20;99.90
21090;DHT22;10703;51.020;6.128;2023-07-29T06:25:04;18.20;99.90
21090;DHT22;10703;51.020;6.128;2023-07-29T06:27:31;18.20;99.90
21090;DHT22;10703;51.020;6.128;2023-07-29T06:29:58;18.20;99.90
21090;DHT22;10703;51.020;6.128;2023-07-29T06:32:24;18.20;99.90
21090;DHT22;10703;51.020;6.128;2023-07-29T06:34:51;18.30;99.90
21090;DHT22;10703;51.020;6.128;2023-07-29T06:37:20;18.30;99.90
21090;DHT22;10703;51.020;6.128;2023-07-29T06:39:47;18.50;99.90
21090;DHT22;10703;51.020;6.128;2023-07-29T06:42:13;18.30;99.90
21090;DHT22;10703;51.020;6.128;2023-07-29T06:44:40;18.60;99.90
21090;DHT22;10703;51.020;6.128;2023-07-29T06:47:07;18.80;99.90
21090;DHT22;10703;51.020;6.128;2023-07-29T06:49:33;18.90;99.90
21090;DHT22;10703;51.020;6.128;2023-07-29T06:52:01;18.70;99.90
21090;DHT22;10703;51.020;6.128;2023-07-29T06:54:27;18.70;99.90
21090;DHT22;10703;51.020;6.128;2023-07-29T06:56:54;18.80;99.90
21090;DHT22;10703;51.020;6.128;2023-07-29T06:59:20;19.00;99.90
21090;DHT22;10703;51.020;6.128;2023-07-29T07:01:47;19.20;99.90
21090;DHT22;10703;51.020;6.128;2023-07-29T07:04:14;19.60;99.90
21090;DHT22;10703;51.020;6.128;2023-07-29T07:06:40;20.10;99.90
21090;DHT22;10703;51.020;6.128;2023-07-29T07:09:07;20.40;99.90
21090;DHT22;10703;51.020;6.128;2023-07-29T07:11:34;20.40;99.90
21090;DHT22;10703;51.020;6.128;2023-07-29T07:14:00;20.00;99.90
21090;DHT22;10703;51.020;6.128;2023-07-29T07:16:27;19.80;99.90
21090;DHT22;10703;51.020;6.128;2023-07-29T07:18:57;20.00;99.90
21090;DHT22;10703;51.020;6.128;2023-07-29T07:21:23;20.30;99.90
21090;DHT22;10703;51.020;6.128;2023-07-29T07:23:50;20.90;99.90
21090;DHT22;10703;51.020;6.128;2023-07-29T07:26:17;21.40;99.90
21090;DHT22;10703;51.020;6.128;2023-07-29T07:28:43;21.50;99.90
21090;DHT22;10703;51.020;6.128;2023-07-29T07:31:10;21.30;99.90
21090;DHT22;10703;51.020;6.128;2023-07-29T07:33:37;21.50;99.90
21090;DHT22;10703;51.020;6.128;2023-07-29T07:36:03;21.40;99.90
21090;DHT22;10703;51.020;6.128;2023-07-29T07:38:30;21.50;99.90
21090;DHT22;10703;51.020;6.128;2023-07-29T07:40:57;21.60;99.90
21090;DHT22;10703;51.020;6.128;2023-07-29T07:43:24;22.10;99.90
21090;DHT22;10703;51.020;6.128;2023-07-29T07:45:57;22.30;99.90
21090;DHT22;10703;51.020;6.128;2023-07-29T07:48:25;22.40;99.90
21090;DHT22;10703;51.020;6.128;2023-07-29T07:50:52;22.80;99.90
21090;DHT22;10703;51.020;6.128;2023-07-29T07:53:19;22.50;99.90
21090;DHT22;10703;51.020;6.128;2023-07-29T07:55:46;22.70;99.90
21090;DHT22;10703;51.020;6.128;2023-07-29T07:58:13;23.30;99.90
21090;DHT22;10703;51.020;6.128;2023-07-29T08:00:40;23.50;99.90
21090;DHT22;10703;51.020;6.128;2023-07-29T08:03:06;23.00;99.90
21090;DHT22;10703;51.020;6.128;2023-07-29T08:05:33;22.90;99.90
21090;DHT22;10703;51.020;6.128;2023-07-29T08:08:00;22.70;99.90
21090;DHT22;10703;51.020;6.128;2023-07-29T08:10:27;22.00;99.90
21090;DHT22;10703;51.020;6.128;2023-07-29T08:12:53;21.60;99.90
21090;DHT22;10703;51.020;6.128;2023-07-29T08:15:20;21.70;99.90
21090;DHT22;10703;51.020;6.128;2023-07-29T08:17:46;21.60;99.90
21090;DHT22;10703;51.020;6.128;2023-07-29T08:20:13;21.80;99.90
21090;DHT22;10703;51.020;6.128;2023-07-29T08:22:40;21.90;99.90
21090;DHT22;10703;51.020;6.128;2023-07-29T08:25:07;21.90;99.90
21090;DHT22;10703;51.020;6.128;2023-07-29T08:27:34;22.30;99.90
21090;DHT22;10703;51.020;6.128;2023-07-29T08:30:01;22.70;99.90
21090;DHT22;10703;51.020;6.128;2023-07-29T08:32:28;22.50;99.90
21090;DHT22;10703;51.020;6.128;2023-07-29T08:34:54;22.30;99.90
21090;DHT22;10703;51.020;6.128;2023-07-29T08:37:21;22.50;99.90
21090;DHT22;10703;51.020;6.128;2023-07-29T08:39:47;22.70;99.90
21090;DHT22;10703;51.020;6.128;2023-07-29T08:42:19;22.20;99.90
21090;DHT22;10703;51.020;6.128;2023-07-29T08:44:48;22.20;99.90
21090;DHT22;10703;51.020;6.128;2023-07-29T08:47:15;21.90;99.90
21090;DHT22;10703;51.020;6.128;2023-07-29T08:49:44;22.00;99.90
21090;DHT22;10703;51.020;6.128;2023-07-29T08:52:12;22.10;99.90
21090;DHT22;10703;51.020;6.128;2023-07-29T08:54:40;21.90;99.90
21090;DHT22;10703;51.020;6.128;2023-07-29T08:57:07;21.90;99.90
21090;DHT22;10703;51.020;6.128;2023-07-29T08:59:33;22.20;99.90
21090;DHT22;10703;51.020;6.128;2023-07-29T09:02:00;22.20;99.90
21090;DHT22;10703;51.020;6.128;2023-07-29T09:04:27;22.30;99.90
21090;DHT22;10703;51.020;6.128;2023-07-29T09:06:56;21.80;99.90
21090;DHT22;10703;51.020;6.128;2023-07-29T09:09:25;21.80;99.90
21090;DHT22;10703;51.020;6.128;2023-07-29T09:11:51;22.10;99.90
21090;DHT22;10703;51.020;6.128;2023-07-29T09:14:18;23.00;99.90
21090;DHT22;10703;51.020;6.128;2023-07-29T09:16:46;23.80;99.90
21090;DHT22;10703;51.020;6.128;2023-07-29T09:19:13;24.60;99.90
21090;DHT22;10703;51.020;6.128;2023-07-29T09:21:40;24.30;99.90
21090;DHT22;10703;51.020;6.128;2023-07-29T09:24:07;23.90;99.90
21090;DHT22;10703;51.020;6.128;2023-07-29T09:26:35;23.80;99.90
21090;DHT22;10703;51.020;6.128;2023-07-29T09:29:02;23.10;99.90
21090;DHT22;10703;51.020;6.128;2023-07-29T09:31:30;23.00;99.90
21090;DHT22;10703;51.020;6.128;2023-07-29T09:33:58;23.30;99.90
21090;DHT22;10703;51.020;6.128;2023-07-29T09:36:26;23.70;99.90
21090;DHT22;10703;51.020;6.128;2023-07-29T09:38:53;23.90;99.90
21090;DHT22;10703;51.020;6.128;2023-07-29T09:41:26;24.10;99.90
21090;DHT22;10703;51.020;6.128;2023-07-29T09:43:57;24.10;99.90
21090;DHT22;10703;51.020;6.128;2023-07-29T09:46:25;24.20;99.90
21090;DHT22;10703;51.020;6.128;2023-07-29T09:48:58;24.40;99.90
21090;DHT22;10703;51.020;6.128;2023-07-29T09:51:25;24.90;99.90
21090;DHT22;10703;51.020;6.128;2023-07-29T09:53:52;24.70;99.90
21090;DHT22;10703;51.020;6.128;2023-07-29T09:56:24;25.00;99.90
21090;DHT22;10703;51.020;6.128;2023-07-29T09:58:52;24.30;99.90
21090;DHT22;10703;51.020;6.128;2023-07-29T10:01:19;25.10;99.90
21090;DHT22;10703;51.020;6.128;2023-07-29T10:03:47;25.00;99.90
21090;DHT22;10703;51.020;6.128;2023-07-29T10:06:17;25.30;99.90
21090;DHT22;10703;51.020;6.128;2023-07-29T10:08:45;24.70;99.90
21090;DHT22;10703;51.020;6.128;2023-07-29T10:11:12;24.80;99.90
21090;DHT22;10703;51.020;6.128;2023-07-29T10:13:39;25.50;99.90
21090;DHT22;10703;51.020;6.128;2023-07-29T10:16:06;26.00;99.90
21090;DHT22;10703;51.020;6.128;2023-07-29T10:18:33;26.70;99.90
21090;DHT22;10703;51.020;6.128;2023-07-29T10:21:01;26.30;99.90
21090;DHT22;10703;51.020;6.128;2023-07-29T10:23:37;26.20;99.90
21090;DHT22;10703;51.020;6.128;2023-07-29T10:26:10;26.50;99.90
21090;DHT22;10703;51.020;6.128;2023-07-29T10:28:40;26.60;99.90
21090;DHT22;10703;51.020;6.128;2023-07-29T10:31:08;26.20;99.90
21090;DHT22;10703;51.020;6.128;2023-07-29T10:33:35;25.90;99.90
21090;DHT22;10703;51.020;6.128;2023-07-29T10:36:04;25.80;99.90
21090;DHT22;10703;51.020;6.128;2023-07-29T10:38:31;24.00;99.90
21090;DHT22;10703;51.020;6.128;2023-07-29T10:40:58;23.60;99.90
21090;DHT22;10703;51.020;6.128;2023-07-29T10:43:33;23.30;99.90
21090;DHT22;10703;51.020;6.128;2023-07-29T10:46:23;23.20;99.90
21090;DHT22;10703;51.020;6.128;2023-07-29T10:51:29;23.30;99.90
21090;DHT22;10703;51.020;6.128;2023-07-29T10:54:19;23.70;99.90
21090;DHT22;10703;51.020;6.128;2023-07-29T10:56:48;23.60;99.90
21090;DHT22;10703;51.020;6.128;2023-07-29T11:02:17;23.20;99.90
21090;DHT22;10703;51.020;6.128;2023-07-29T11:04:50;23.50;99.90
21090;DHT22;10703;51.020;6.128;2023-07-29T11:12:40;25.50;99.90
21090;DHT22;10703;51.020;6.128;2023-07-29T11:15:24;25.60;99.90
21090;DHT22;10703;51.020;6.128;2023-07-29T11:17:59;25.60;99.90
21090;DHT22;10703;51.020;6.128;2023-07-29T11:20:31;25.60;99.90
21090;DHT22;10703;51.020;6.128;2023-07-29T11:22:59;26.10;99.90
21090;DHT22;10703;51.020;6.128;2023-07-29T11:25:29;25.90;99.90
21090;DHT22;10703;51.020;6.128;2023-07-29T11:27:57;25.80;99.90
21090;DHT22;10703;51.020;6.128;2023-07-29T11:30:24;26.40;99.90
21090;DHT22;10703;51.020;6.128;2023-07-29T11:32:54;26.10;99.90
21090;DHT22;10703;51.020;6.128;2023-07-29T11:35:22;25.90;99.90
21090;DHT22;10703;51.020;6.128;2023-07-29T11:37:50;27.10;99.90
21090;DHT22;10703;51.020;6.128;2023-07-29T11:40:22;27.20;99.90
21090;DHT22;10703;51.020;6.128;2023-07-29T11:42:51;26.90;99.90
21090;DHT22;10703;51.020;6.128;2023-07-29T11:45:19;27.10;99.90
21090;DHT22;10703;51.020;6.128;2023-07-29T11:47:46;27.60;99.90
21090;DHT22;10703;51.020;6.128;2023-07-29T11:50:14;27.30;99.90
21090;DHT22;10703;51.020;6.128;2023-07-29T11:52:43;28.00;99.90
21090;DHT22;10703;51.020;6.128;2023-07-29T11:55:12;28.20;99.90
21090;DHT22;10703;51.020;6.128;2023-07-29T11:57:39;27.90;99.90
21090;DHT22;10703;51.020;6.128;2023-07-29T12:00:09;28.00;99.90
21090;DHT22;10703;51.020;6.128;2023-07-29T12:02:38;28.80;99.90
21090;DHT22;10703;51.020;6.128;2023-07-29T12:05:06;27.20;99.90
21090;DHT22;10703;51.020;6.128;2023-07-29T12:07:35;26.60;99.90
21090;DHT22;10703;51.020;6.128;2023-07-29T12:10:03;26.20;99.90
21090;DHT22;10703;51.020;6.128;2023-07-29T12:12:30;25.60;99.90
21090;DHT22;10703;51.020;6.128;2023-07-29T12:14:57;25.30;99.90
21090;DHT22;10703;51.020;6.128;2023-07-29T12:17:24;25.00;99.90
21090;DHT22;10703;51.020;6.128;2023-07-29T12:19:54;24.40;99.90
21090;DHT22;10703;51.020;6.128;2023-07-29T12:22:21;23.90;99.90
21090;DHT22;10703;51.020;6.128;2023-07-29T12:24:51;23.50;99.90
21090;DHT22;10703;51.020;6.128;2023-07-29T12:27:21;23.30;99.90
21090;DHT22;10703;51.020;6.128;2023-07-29T12:29:51;23.20;99.90
21090;DHT22;10703;51.020;6.128;2023-07-29T12:32:18;23.20;99.90
21090;DHT22;10703;51.020;6.128;2023-07-29T12:34:45;23.20;99.90
21090;DHT22;10703;51.020;6.128;2023-07-29T12:37:12;22.80;99.90
21090;DHT22;10703;51.020;6.128;2023-07-29T12:39:42;22.40;99.90
21090;DHT22;10703;51.020;6.128;2023-07-29T12:42:09;22.00;99.90
21090;DHT22;10703;51.020;6.128;2023-07-29T12:44:38;21.70;99.90
21090;DHT22;10703;51.020;6.128;2023-07-29T12:47:06;21.40;99.90
21090;DHT22;10703;51.020;6.128;2023-07-29T12:49:33;21.10;99.90
21090;DHT22;10703;51.020;6.128;2023-07-29T12:52:00;21.00;99.90
21090;DHT22;10703;51.020;6.128;2023-07-29T12:54:27;21.00;99.90
21090;DHT22;10703;51.020;6.128;2023-07-29T12:56:53;20.60;99.90
21090;DHT22;10703;51.020;6.128;2023-07-29T12:59:20;20.50;99.90
21090;DHT22;10703;51.020;6.128;2023-07-29T13:01:47;20.20;99.90
21090;DHT22;10703;51.020;6.128;2023-07-29T13:04:13;19.90;99.90
21090;DHT22;10703;51.020;6.128;2023-07-29T13:06:40;19.70;99.90
21090;DHT22;10703;51.020;6.128;2023-07-29T13:09:07;19.30;99.90
21090;DHT22;10703;51.020;6.128;2023-07-29T13:11:34;18.70;99.90
21090;DHT22;10703;51.020;6.128;2023-07-29T13:14:01;18.60;99.90
21090;DHT22;10703;51.020;6.128;2023-07-29T13:16:28;18.60;99.90
21090;DHT22;10703;51.020;6.128;2023-07-29T13:18:55;18.70;99.90
21090;DHT22;10703;51.020;6.128;2023-07-29T13:21:23;18.50;99.90
21090;DHT22;10703;51.020;6.128;2023-07-29T13:23:50;18.50;99.90
21090;DHT22;10703;51.020;6.128;2023-07-29T13:26:16;18.50;99.90
21090;DHT22;10703;51.020;6.128;2023-07-29T13:28:43;18.60;99.90
21090;DHT22;10703;51.020;6.128;2023-07-29T13:31:10;18.70;99.90
21090;DHT22;10703;51.020;6.128;2023-07-29T13:33:37;18.70;99.90
21090;DHT22;10703;51.020;6.128;2023-07-29T13:36:03;18.90;99.90
21090;DHT22;10703;51.020;6.128;2023-07-29T13:38:30;19.20;99.90
21090;DHT22;10703;51.020;6.128;2023-07-29T13:40:57;19.90;99.90
21090;DHT22;10703;51.020;6.128;2023-07-29T13:43:24;20.20;99.90
21090;DHT22;10703;51.020;6.128;2023-07-29T13:45:50;21.00;99.90
21090;DHT22;10703;51.020;6.128;2023-07-29T13:48:18;21.80;99.90
21090;DHT22;10703;51.020;6.128;2023-07-29T13:50:44;22.50;99.90
21090;DHT22;10703;51.020;6.128;2023-07-29T13:53:11;22.70;99.90
21090;DHT22;10703;51.020;6.128;2023-07-29T13:55:38;23.00;99.90
21090;DHT22;10703;51.020;6.128;2023-07-29T13:58:05;23.30;99.90
21090;DHT22;10703;51.020;6.128;2023-07-29T14:00:31;22.70;99.90
21090;DHT22;10703;51.020;6.128;2023-07-29T14:02:58;22.30;99.90
21090;DHT22;10703;51.020;6.128;2023-07-29T14:05:25;22.10;99.90
21090;DHT22;10703;51.020;6.128;2023-07-29T14:07:51;21.90;99.90
21090;DHT22;10703;51.020;6.128;2023-07-29T14:10:18;21.80;99.90
21090;DHT22;10703;51.020;6.128;2023-07-29T14:12:44;22.00;99.90
21090;DHT22;10703;51.020;6.128;2023-07-29T14:15:11;22.10;99.90
21090;DHT22;10703;51.020;6.128;2023-07-29T14:17:38;22.10;99.90
21090;DHT22;10703;51.020;6.128;2023-07-29T14:20:05;22.10;99.90
21090;DHT22;10703;51.020;6.128;2023-07-29T14:22:32;22.30;99.90
21090;DHT22;10703;51.020;6.128;2023-07-29T14:24:58;22.50;99.90
21090;DHT22;10703;51.020;6.128;2023-07-29T14:27:27;22.30;99.90
21090;DHT22;10703;51.020;6.128;2023-07-29T14:29:53;22.70;99.90
21090;DHT22;10703;51.020;6.128;2023-07-29T14:32:20;22.60;99.90
21090;DHT22;10703;51.020;6.128;2023-07-29T14:34:49;22.90;99.90
21090;DHT22;10703;51.020;6.128;2023-07-29T14:37:16;22.80;99.90
21090;DHT22;10703;51.020;6.128;2023-07-29T14:39:43;22.40;99.90
21090;DHT22;10703;51.020;6.128;2023-07-29T14:42:09;22.20;99.90
21090;DHT22;10703;51.020;6.128;2023-07-29T14:44:36;22.00;99.90
21090;DHT22;10703;51.020;6.128;2023-07-29T14:47:03;21.80;99.90
21090;DHT22;10703;51.020;6.128;2023-07-29T14:49:29;21.50;99.90
21090;DHT22;10703;51.020;6.128;2023-07-29T14:51:56;21.40;99.90
21090;DHT22;10703;51.020;6.128;2023-07-29T14:54:23;21.30;99.90
21090;DHT22;10703;51.020;6.128;2023-07-29T14:56:49;21.40;99.90
21090;DHT22;10703;51.020;6.128;2023-07-29T14:59:16;22.10;99.90
21090;DHT22;10703;51.020;6.128;2023-07-29T15:01:43;23.10;99.90
21090;DHT22;10703;51.020;6.128;2023-07-29T15:04:09;24.10;99.90
21090;DHT22;10703;51.020;6.128;2023-07-29T15:06:36;25.00;99.90
21090;DHT22;10703;51.020;6.128;2023-07-29T15:09:03;25.40;99.90
21090;DHT22;10703;51.020;6.128;2023-07-29T15:11:30;26.40;99.90
21090;DHT22;10703;51.020;6.128;2023-07-29T15:13:59;26.50;99.90
21090;DHT22;10703;51.020;6.128;2023-07-29T15:16:26;25.70;99.90
21090;DHT22;10703;51.020;6.128;2023-07-29T15:18:53;25.40;99.90
21090;DHT22;10703;51.020;6.128;2023-07-29T15:21:19;26.20;99.90
21090;DHT22;10703;51.020;6.128;2023-07-29T15:23:46;26.70;99.90
21090;DHT22;10703;51.020;6.128;2023-07-29T15:26:13;26.10;99.90
21090;DHT22;10703;51.020;6.128;2023-07-29T15:28:39;25.30;99.90
21090;DHT22;10703;51.020;6.128;2023-07-29T15:31:06;25.00;99.90
21090;DHT22;10703;51.020;6.128;2023-07-29T15:33:33;24.70;99.90
21090;DHT22;10703;51.020;6.128;2023-07-29T15:36:01;24.40;99.90
21090;DHT22;10703;51.020;6.128;2023-07-29T15:38:28;24.20;99.90
21090;DHT22;10703;51.020;6.128;2023-07-29T15:40:54;24.60;99.90
21090;DHT22;10703;51.020;6.128;2023-07-29T15:43:22;25.20;99.90